sensor_id;sensor_type;location;lat;lon;timestamp;P1;durP1;ratioP1;P2;durP2;ratioP2
38653;SDS011;24413;52.450;20.706;2024-01-25T00:00:03;20.40;;;3.78;;
38653;SDS011;24413;52.450;20.706;2024-01-25T00:02:28;15.43;;;4.13;;
38653;SDS011;24413;52.450;20.706;2024-01-25T00:05:03;17.88;;;4.68;;
38653;SDS011;24413;52.450;20.706;2024-01-25T00:07:33;18.40;;;4.40;;
38653;SDS011;24413;52.450;20.706;2024-01-25T00:10:11;18.15;;;5.20;;
38653;SDS011;24413;52.450;20.706;2024-01-25T00:18:37;15.18;;;2.60;;
38653;SDS011;24413;52.450;20.706;2024-01-25T00:21:20;16.35;;;3.30;;
38653;SDS011;24413;52.450;20.706;2024-01-25T00:23:48;10.88;;;2.88;;
38653;SDS011;24413;52.450;20.706;2024-01-25T00:26:17;13.40;;;2.60;;
38653;SDS011;24413;52.450;20.706;2024-01-25T00:28:53;15.20;;;4.10;;
38653;SDS011;24413;52.450;20.706;2024-01-25T00:31:39;10.80;;;3.20;;
38653;SDS011;24413;52.450;20.706;2024-01-25T00:34:08;10.45;;;2.80;;
38653;SDS011;24413;52.450;20.706;2024-01-25T00:36:45;9.63;;;2.33;;
38653;SDS011;24413;52.450;20.706;2024-01-25T00:39:11;6.10;;;2.67;;
38653;SDS011;24413;52.450;20.706;2024-01-25T00:41:48;13.43;;;2.80;;
38653;SDS011;24413;52.450;20.706;2024-01-25T00:44:19;7.70;;;2.35;;
38653;SDS011;24413;52.450;20.706;2024-01-25T00:50:09;13.98;;;3.75;;
38653;SDS011;24413;52.450;20.706;2024-01-25T00:52:38;12.10;;;3.03;;
38653;SDS011;24413;52.450;20.706;2024-01-25T00:55:07;17.65;;;3.13;;
38653;SDS011;24413;52.450;20.706;2024-01-25T00:57:33;18.58;;;3.38;;
38653;SDS011;24413;52.450;20.706;2024-01-25T01:00:10;8.98;;;2.13;;
38653;SDS011;24413;52.450;20.706;2024-01-25T01:02:45;12.80;;;3.58;;
38653;SDS011;24413;52.450;20.706;2024-01-25T01:05:21;12.45;;;3.72;;
38653;SDS011;24413;52.450;20.706;2024-01-25T01:07:59;10.35;;;2.92;;
38653;SDS011;24413;52.450;20.706;2024-01-25T01:10:36;11.02;;;2.78;;
38653;SDS011;24413;52.450;20.706;2024-01-25T01:13:05;15.85;;;2.85;;
38653;SDS011;24413;52.450;20.706;2024-01-25T01:15:42;15.85;;;2.72;;
38653;SDS011;24413;52.450;20.706;2024-01-25T01:18:14;10.70;;;2.38;;
38653;SDS011;24413;52.450;20.706;2024-01-25T01:21:04;11.93;;;3.15;;
38653;SDS011;24413;52.450;20.706;2024-01-25T01:23:32;11.88;;;2.78;;
38653;SDS011;24413;52.450;20.706;2024-01-25T01:26:06;15.55;;;3.25;;
38653;SDS011;24413;52.450;20.706;2024-01-25T01:28:41;10.65;;;3.00;;
38653;SDS011;24413;52.450;20.706;2024-01-25T01:31:06;15.75;;;2.75;;
38653;SDS011;24413;52.450;20.706;2024-01-25T01:33:31;12.73;;;3.00;;
38653;SDS011;24413;52.450;20.706;2024-01-25T01:35:56;12.25;;;3.45;;
38653;SDS011;24413;52.450;20.706;2024-01-25T01:38:22;12.48;;;2.63;;
38653;SDS011;24413;52.450;20.706;2024-01-25T01:40:47;12.85;;;4.05;;
38653;SDS011;24413;52.450;20.706;2024-01-25T01:43:19;15.63;;;4.63;;
38653;SDS011;24413;52.450;20.706;2024-01-25T01:45:44;17.45;;;3.85;;
38653;SDS011;24413;52.450;20.706;2024-01-25T01:48:10;21.75;;;3.63;;
38653;SDS011;24413;52.450;20.706;2024-01-25T01:50:35;13.27;;;3.40;;
38653;SDS011;24413;52.450;20.706;2024-01-25T01:53:00;16.90;;;2.95;;
38653;SDS011;24413;52.450;20.706;2024-01-25T01:55:26;12.88;;;3.20;;
38653;SDS011;24413;52.450;20.706;2024-01-25T01:57:51;13.45;;;3.92;;
38653;SDS011;24413;52.450;20.706;2024-01-25T02:00:17;20.73;;;4.47;;
38653;SDS011;24413;52.450;20.706;2024-01-25T02:02:42;19.77;;;3.60;;
38653;SDS011;24413;52.450;20.706;2024-01-25T02:05:08;17.40;;;3.92;;
38653;SDS011;24413;52.450;20.706;2024-01-25T02:07:34;14.35;;;3.80;;
38653;SDS011;24413;52.450;20.706;2024-01-25T02:09:59;19.52;;;4.90;;
38653;SDS011;24413;52.450;20.706;2024-01-25T02:12:24;18.88;;;4.60;;
38653;SDS011;24413;52.450;20.706;2024-01-25T02:14:50;16.75;;;4.05;;
38653;SDS011;24413;52.450;20.706;2024-01-25T02:17:15;24.52;;;4.55;;
38653;SDS011;24413;52.450;20.706;2024-01-25T02:19:41;18.85;;;3.40;;
38653;SDS011;24413;52.450;20.706;2024-01-25T02:30:52;23.45;;;5.00;;
38653;SDS011;24413;52.450;20.706;2024-01-25T02:36:09;17.20;;;5.25;;
38653;SDS011;24413;52.450;20.706;2024-01-25T02:38:35;17.05;;;4.07;;
38653;SDS011;24413;52.450;20.706;2024-01-25T02:59:09;18.25;;;4.20;;
38653;SDS011;24413;52.450;20.706;2024-01-25T03:01:43;14.93;;;3.90;;
38653;SDS011;24413;52.450;20.706;2024-01-25T03:04:10;21.20;;;4.25;;
38653;SDS011;24413;52.450;20.706;2024-01-25T03:06:42;24.75;;;5.18;;
38653;SDS011;24413;52.450;20.706;2024-01-25T03:09:17;15.90;;;4.90;;
38653;SDS011;24413;52.450;20.706;2024-01-25T03:11:43;17.75;;;4.35;;
38653;SDS011;24413;52.450;20.706;2024-01-25T03:14:08;18.77;;;4.43;;
38653;SDS011;24413;52.450;20.706;2024-01-25T03:19:50;16.63;;;5.07;;
38653;SDS011;24413;52.450;20.706;2024-01-25T03:35:23;17.27;;;4.28;;
38653;SDS011;24413;52.450;20.706;2024-01-25T03:37:50;25.55;;;5.00;;
38653;SDS011;24413;52.450;20.706;2024-01-25T03:43:18;15.18;;;3.55;;
38653;SDS011;24413;52.450;20.706;2024-01-25T03:45:44;20.35;;;4.78;;
38653;SDS011;24413;52.450;20.706;2024-01-25T03:48:10;23.83;;;7.97;;
38653;SDS011;24413;52.450;20.706;2024-01-25T03:50:39;18.05;;;4.50;;
38653;SDS011;24413;52.450;20.706;2024-01-25T03:56:00;44.20;;;16.10;;
38653;SDS011;24413;52.450;20.706;2024-01-25T03:58:52;83.20;;;48.55;;
38653;SDS011;24413;52.450;20.706;2024-01-25T04:01:18;53.90;;;21.92;;
38653;SDS011;24413;52.450;20.706;2024-01-25T04:03:46;32.70;;;16.27;;
38653;SDS011;24413;52.450;20.706;2024-01-25T04:06:19;42.67;;;22.13;;
38653;SDS011;24413;52.450;20.706;2024-01-25T04:24:09;77.38;;;27.83;;
38653;SDS011;24413;52.450;20.706;2024-01-25T04:26:34;31.58;;;8.65;;
38653;SDS011;24413;52.450;20.706;2024-01-25T04:29:00;21.08;;;5.32;;
38653;SDS011;24413;52.450;20.706;2024-01-25T04:31:25;33.33;;;10.70;;
38653;SDS011;24413;52.450;20.706;2024-01-25T04:33:50;26.70;;;5.75;;
38653;SDS011;24413;52.450;20.706;2024-01-25T04:36:16;24.75;;;8.90;;
38653;SDS011;24413;52.450;20.706;2024-01-25T04:38:41;27.58;;;7.25;;
38653;SDS011;24413;52.450;20.706;2024-01-25T04:41:06;30.30;;;9.60;;
38653;SDS011;24413;52.450;20.706;2024-01-25T04:43:35;28.10;;;7.05;;
38653;SDS011;24413;52.450;20.706;2024-01-25T04:46:01;46.38;;;19.13;;
38653;SDS011;24413;52.450;20.706;2024-01-25T04:48:30;25.13;;;6.78;;
38653;SDS011;24413;52.450;20.706;2024-01-25T04:50:56;28.60;;;9.80;;
38653;SDS011;24413;52.450;20.706;2024-01-25T04:53:22;29.60;;;5.88;;
38653;SDS011;24413;52.450;20.706;2024-01-25T04:55:47;71.72;;;19.95;;
38653;SDS011;24413;52.450;20.706;2024-01-25T04:58:12;23.23;;;6.07;;
38653;SDS011;24413;52.450;20.706;2024-01-25T05:00:38;52.88;;;19.25;;
38653;SDS011;24413;52.450;20.706;2024-01-25T05:03:04;22.83;;;7.15;;
38653;SDS011;24413;52.450;20.706;2024-01-25T05:05:30;25.13;;;6.32;;
38653;SDS011;24413;52.450;20.706;2024-01-25T05:07:55;32.92;;;9.27;;
38653;SDS011;24413;52.450;20.706;2024-01-25T05:10:20;24.70;;;9.55;;
38653;SDS011;24413;52.450;20.706;2024-01-25T05:12:47;27.85;;;7.40;;
38653;SDS011;24413;52.450;20.706;2024-01-25T05:15:12;28.38;;;8.55;;
38653;SDS011;24413;52.450;20.706;2024-01-25T05:17:37;25.42;;;7.63;;
38653;SDS011;24413;52.450;20.706;2024-01-25T05:20:03;20.35;;;5.03;;
38653;SDS011;24413;52.450;20.706;2024-01-25T05:22:28;15.50;;;4.97;;
38653;SDS011;24413;52.450;20.706;2024-01-25T05:24:53;19.88;;;4.50;;
38653;SDS011;24413;52.450;20.706;2024-01-25T05:27:19;19.42;;;4.82;;
38653;SDS011;24413;52.450;20.706;2024-01-25T05:29:44;24.52;;;4.95;;
38653;SDS011;24413;52.450;20.706;2024-01-25T05:32:10;17.85;;;5.43;;
38653;SDS011;24413;52.450;20.706;2024-01-25T05:34:35;20.98;;;5.40;;
38653;SDS011;24413;52.450;20.706;2024-01-25T05:37:00;20.95;;;6.53;;
38653;SDS011;24413;52.450;20.706;2024-01-25T05:39:26;22.50;;;6.30;;
38653;SDS011;24413;52.450;20.706;2024-01-25T05:47:38;16.23;;;3.97;;
38653;SDS011;24413;52.450;20.706;2024-01-25T05:50:07;21.40;;;5.00;;
38653;SDS011;24413;52.450;20.706;2024-01-25T05:52:39;12.27;;;4.57;;
38653;SDS011;24413;52.450;20.706;2024-01-25T05:55:04;18.00;;;4.80;;
38653;SDS011;24413;52.450;20.706;2024-01-25T05:57:39;18.00;;;4.40;;
38653;SDS011;24413;52.450;20.706;2024-01-25T06:00:11;18.08;;;6.00;;
38653;SDS011;24413;52.450;20.706;2024-01-25T06:02:43;22.92;;;6.35;;
38653;SDS011;24413;52.450;20.706;2024-01-25T06:05:14;30.65;;;5.07;;
38653;SDS011;24413;52.450;20.706;2024-01-25T06:07:58;22.13;;;6.07;;
38653;SDS011;24413;52.450;20.706;2024-01-25T06:10:23;16.23;;;5.32;;
38653;SDS011;24413;52.450;20.706;2024-01-25T06:12:48;14.90;;;5.60;;
38653;SDS011;24413;52.450;20.706;2024-01-25T06:15:14;18.15;;;4.68;;
38653;SDS011;24413;52.450;20.706;2024-01-25T06:17:42;20.90;;;5.63;;
38653;SDS011;24413;52.450;20.706;2024-01-25T06:20:08;17.50;;;4.70;;
38653;SDS011;24413;52.450;20.706;2024-01-25T06:22:35;16.67;;;4.28;;
38653;SDS011;24413;52.450;20.706;2024-01-25T06:25:00;21.88;;;5.95;;
38653;SDS011;24413;52.450;20.706;2024-01-25T06:27:26;14.65;;;3.97;;
38653;SDS011;24413;52.450;20.706;2024-01-25T06:29:51;18.27;;;5.10;;
38653;SDS011;24413;52.450;20.706;2024-01-25T06:32:16;19.20;;;5.88;;
38653;SDS011;24413;52.450;20.706;2024-01-25T06:34:42;15.77;;;4.82;;
38653;SDS011;24413;52.450;20.706;2024-01-25T06:37:07;15.45;;;4.82;;
38653;SDS011;24413;52.450;20.706;2024-01-25T06:39:32;15.23;;;5.13;;
38653;SDS011;24413;52.450;20.706;2024-01-25T06:41:57;14.82;;;4.40;;
38653;SDS011;24413;52.450;20.706;2024-01-25T06:44:23;16.48;;;4.80;;
38653;SDS011;24413;52.450;20.706;2024-01-25T06:46:48;26.98;;;5.25;;
38653;SDS011;24413;52.450;20.706;2024-01-25T06:49:13;18.08;;;4.78;;
38653;SDS011;24413;52.450;20.706;2024-01-25T06:51:39;13.50;;;4.50;;
38653;SDS011;24413;52.450;20.706;2024-01-25T06:54:08;13.30;;;5.05;;
38653;SDS011;24413;52.450;20.706;2024-01-25T06:56:41;10.32;;;4.07;;
38653;SDS011;24413;52.450;20.706;2024-01-25T06:59:36;21.27;;;4.97;;
38653;SDS011;24413;52.450;20.706;2024-01-25T07:08:07;17.50;;;4.53;;
38653;SDS011;24413;52.450;20.706;2024-01-25T07:10:49;13.15;;;4.60;;
38653;SDS011;24413;52.450;20.706;2024-01-25T07:13:20;15.20;;;5.53;;
38653;SDS011;24413;52.450;20.706;2024-01-25T07:21:58;7.72;;;3.70;;
38653;SDS011;24413;52.450;20.706;2024-01-25T07:24:29;14.85;;;4.20;;
38653;SDS011;24413;52.450;20.706;2024-01-25T07:27:00;17.35;;;4.22;;
38653;SDS011;24413;52.450;20.706;2024-01-25T07:29:39;11.80;;;3.83;;
38653;SDS011;24413;52.450;20.706;2024-01-25T07:34:46;7.75;;;3.80;;
38653;SDS011;24413;52.450;20.706;2024-01-25T07:37:12;9.45;;;3.80;;
38653;SDS011;24413;52.450;20.706;2024-01-25T07:39:49;6.35;;;3.33;;
38653;SDS011;24413;52.450;20.706;2024-01-25T07:42:41;8.13;;;3.28;;
38653;SDS011;24413;52.450;20.706;2024-01-25T07:45:06;9.90;;;4.10;;
38653;SDS011;24413;52.450;20.706;2024-01-25T07:47:32;9.18;;;3.72;;
38653;SDS011;24413;52.450;20.706;2024-01-25T07:49:57;7.18;;;3.38;;
38653;SDS011;24413;52.450;20.706;2024-01-25T07:52:22;7.55;;;3.08;;
38653;SDS011;24413;52.450;20.706;2024-01-25T07:54:47;6.25;;;3.00;;
38653;SDS011;24413;52.450;20.706;2024-01-25T07:57:13;7.55;;;3.08;;
38653;SDS011;24413;52.450;20.706;2024-01-25T07:59:38;6.70;;;3.38;;
38653;SDS011;24413;52.450;20.706;2024-01-25T08:02:03;8.95;;;3.20;;
38653;SDS011;24413;52.450;20.706;2024-01-25T08:04:29;10.85;;;3.35;;
38653;SDS011;24413;52.450;20.706;2024-01-25T08:06:55;6.72;;;3.40;;
38653;SDS011;24413;52.450;20.706;2024-01-25T08:09:21;7.50;;;2.88;;
38653;SDS011;24413;52.450;20.706;2024-01-25T08:11:47;7.57;;;2.97;;
38653;SDS011;24413;52.450;20.706;2024-01-25T08:14:12;5.55;;;3.08;;
38653;SDS011;24413;52.450;20.706;2024-01-25T08:16:37;6.78;;;3.13;;
38653;SDS011;24413;52.450;20.706;2024-01-25T08:19:02;5.78;;;2.47;;
38653;SDS011;24413;52.450;20.706;2024-01-25T08:21:28;10.13;;;3.20;;
38653;SDS011;24413;52.450;20.706;2024-01-25T08:23:53;3.67;;;2.40;;
38653;SDS011;24413;52.450;20.706;2024-01-25T08:26:18;5.45;;;2.53;;
38653;SDS011;24413;52.450;20.706;2024-01-25T08:28:46;5.47;;;2.58;;
38653;SDS011;24413;52.450;20.706;2024-01-25T08:31:11;4.57;;;2.28;;
38653;SDS011;24413;52.450;20.706;2024-01-25T08:33:38;5.63;;;2.85;;
38653;SDS011;24413;52.450;20.706;2024-01-25T08:36:03;3.38;;;2.00;;
38653;SDS011;24413;52.450;20.706;2024-01-25T08:38:29;4.57;;;2.10;;
38653;SDS011;24413;52.450;20.706;2024-01-25T08:40:54;5.00;;;2.35;;
38653;SDS011;24413;52.450;20.706;2024-01-25T08:43:19;4.30;;;2.00;;
38653;SDS011;24413;52.450;20.706;2024-01-25T08:45:45;7.50;;;2.00;;
38653;SDS011;24413;52.450;20.706;2024-01-25T08:48:10;4.80;;;2.15;;
38653;SDS011;24413;52.450;20.706;2024-01-25T08:50:35;12.57;;;2.13;;
38653;SDS011;24413;52.450;20.706;2024-01-25T08:53:01;4.60;;;2.10;;
38653;SDS011;24413;52.450;20.706;2024-01-25T08:55:26;5.03;;;2.30;;
38653;SDS011;24413;52.450;20.706;2024-01-25T08:57:52;3.70;;;2.33;;
38653;SDS011;24413;52.450;20.706;2024-01-25T09:00:25;8.00;;;2.28;;
38653;SDS011;24413;52.450;20.706;2024-01-25T09:02:53;8.20;;;2.50;;
38653;SDS011;24413;52.450;20.706;2024-01-25T09:05:22;3.17;;;1.88;;
38653;SDS011;24413;52.450;20.706;2024-01-25T09:07:53;4.70;;;2.35;;
38653;SDS011;24413;52.450;20.706;2024-01-25T09:10:19;4.05;;;1.65;;
38653;SDS011;24413;52.450;20.706;2024-01-25T09:12:49;5.65;;;1.80;;
38653;SDS011;24413;52.450;20.706;2024-01-25T09:15:56;3.97;;;1.67;;
38653;SDS011;24413;52.450;20.706;2024-01-25T09:18:37;6.80;;;1.90;;
38653;SDS011;24413;52.450;20.706;2024-01-25T09:24:33;2.88;;;1.70;;
38653;SDS011;24413;52.450;20.706;2024-01-25T09:27:01;2.08;;;1.50;;
38653;SDS011;24413;52.450;20.706;2024-01-25T09:29:39;5.13;;;2.47;;
38653;SDS011;24413;52.450;20.706;2024-01-25T09:32:11;3.85;;;2.42;;
38653;SDS011;24413;52.450;20.706;2024-01-25T09:47:16;3.33;;;1.70;;
38653;SDS011;24413;52.450;20.706;2024-01-25T09:53:38;5.90;;;1.98;;
38653;SDS011;24413;52.450;20.706;2024-01-25T09:56:12;5.07;;;2.20;;
38653;SDS011;24413;52.450;20.706;2024-01-25T09:58:43;3.80;;;1.83;;
38653;SDS011;24413;52.450;20.706;2024-01-25T10:01:20;2.65;;;1.63;;
38653;SDS011;24413;52.450;20.706;2024-01-25T10:03:48;4.40;;;1.60;;
38653;SDS011;24413;52.450;20.706;2024-01-25T10:06:32;5.93;;;1.65;;
38653;SDS011;24413;52.450;20.706;2024-01-25T10:09:04;3.30;;;1.85;;
38653;SDS011;24413;52.450;20.706;2024-01-25T10:14:00;6.60;;;3.20;;
38653;SDS011;24413;52.450;20.706;2024-01-25T10:16:26;5.00;;;1.83;;
38653;SDS011;24413;52.450;20.706;2024-01-25T10:18:51;4.95;;;2.60;;
38653;SDS011;24413;52.450;20.706;2024-01-25T10:21:19;2.88;;;2.15;;
38653;SDS011;24413;52.450;20.706;2024-01-25T10:23:45;3.53;;;1.50;;
38653;SDS011;24413;52.450;20.706;2024-01-25T10:29:16;6.10;;;2.60;;
38653;SDS011;24413;52.450;20.706;2024-01-25T10:34:45;4.05;;;2.03;;
38653;SDS011;24413;52.450;20.706;2024-01-25T10:37:10;4.03;;;1.80;;
38653;SDS011;24413;52.450;20.706;2024-01-25T10:39:38;3.13;;;1.40;;
38653;SDS011;24413;52.450;20.706;2024-01-25T10:42:06;4.45;;;2.30;;
38653;SDS011;24413;52.450;20.706;2024-01-25T10:44:32;6.03;;;2.30;;
38653;SDS011;24413;52.450;20.706;2024-01-25T10:46:57;4.30;;;2.67;;
38653;SDS011;24413;52.450;20.706;2024-01-25T10:49:23;5.07;;;1.90;;
38653;SDS011;24413;52.450;20.706;2024-01-25T10:51:50;4.93;;;1.50;;
38653;SDS011;24413;52.450;20.706;2024-01-25T10:54:15;2.60;;;1.80;;
38653;SDS011;24413;52.450;20.706;2024-01-25T10:56:42;2.95;;;1.83;;
38653;SDS011;24413;52.450;20.706;2024-01-25T10:59:07;3.42;;;1.92;;
38653;SDS011;24413;52.450;20.706;2024-01-25T11:01:33;3.30;;;1.75;;
38653;SDS011;24413;52.450;20.706;2024-01-25T11:04:00;3.58;;;1.90;;
38653;SDS011;24413;52.450;20.706;2024-01-25T11:06:26;2.42;;;2.05;;
38653;SDS011;24413;52.450;20.706;2024-01-25T11:08:52;6.15;;;3.28;;
38653;SDS011;24413;52.450;20.706;2024-01-25T11:11:17;7.20;;;2.97;;
38653;SDS011;24413;52.450;20.706;2024-01-25T11:13:43;7.25;;;2.22;;
38653;SDS011;24413;52.450;20.706;2024-01-25T11:16:27;6.13;;;3.30;;
38653;SDS011;24413;52.450;20.706;2024-01-25T11:18:54;3.30;;;1.88;;
38653;SDS011;24413;52.450;20.706;2024-01-25T11:21:26;10.65;;;3.50;;
38653;SDS011;24413;52.450;20.706;2024-01-25T11:23:58;18.95;;;8.02;;
38653;SDS011;24413;52.450;20.706;2024-01-25T11:26:24;30.67;;;19.73;;
38653;SDS011;24413;52.450;20.706;2024-01-25T11:28:50;18.63;;;5.15;;
38653;SDS011;24413;52.450;20.706;2024-01-25T11:31:16;10.85;;;3.85;;
38653;SDS011;24413;52.450;20.706;2024-01-25T11:33:41;8.50;;;3.00;;
38653;SDS011;24413;52.450;20.706;2024-01-25T11:36:25;16.67;;;6.57;;
38653;SDS011;24413;52.450;20.706;2024-01-25T11:38:53;16.48;;;5.43;;
38653;SDS011;24413;52.450;20.706;2024-01-25T11:41:22;17.70;;;4.43;;
38653;SDS011;24413;52.450;20.706;2024-01-25T11:43:48;7.78;;;3.25;;
38653;SDS011;24413;52.450;20.706;2024-01-25T11:46:14;10.13;;;3.90;;
38653;SDS011;24413;52.450;20.706;2024-01-25T11:48:49;8.68;;;3.50;;
38653;SDS011;24413;52.450;20.706;2024-01-25T11:51:18;11.57;;;4.00;;
38653;SDS011;24413;52.450;20.706;2024-01-25T11:53:49;10.95;;;4.20;;
38653;SDS011;24413;52.450;20.706;2024-01-25T11:56:23;7.80;;;3.80;;
38653;SDS011;24413;52.450;20.706;2024-01-25T11:58:52;12.57;;;4.00;;
38653;SDS011;24413;52.450;20.706;2024-01-25T12:01:21;5.00;;;2.50;;
38653;SDS011;24413;52.450;20.706;2024-01-25T12:04:06;3.05;;;1.67;;
38653;SDS011;24413;52.450;20.706;2024-01-25T12:06:32;6.25;;;3.97;;
38653;SDS011;24413;52.450;20.706;2024-01-25T12:09:10;3.78;;;1.38;;
38653;SDS011;24413;52.450;20.706;2024-01-25T12:11:40;2.40;;;1.63;;
38653;SDS011;24413;52.450;20.706;2024-01-25T12:14:06;3.92;;;1.52;;
38653;SDS011;24413;52.450;20.706;2024-01-25T12:16:32;2.20;;;1.58;;
38653;SDS011;24413;52.450;20.706;2024-01-25T12:19:01;2.40;;;1.25;;
38653;SDS011;24413;52.450;20.706;2024-01-25T12:21:27;3.03;;;1.83;;
38653;SDS011;24413;52.450;20.706;2024-01-25T12:23:55;3.53;;;1.67;;
38653;SDS011;24413;52.450;20.706;2024-01-25T12:26:35;3.50;;;2.30;;
38653;SDS011;24413;52.450;20.706;2024-01-25T12:29:00;5.72;;;2.63;;
38653;SDS011;24413;52.450;20.706;2024-01-25T12:31:26;2.65;;;1.45;;
38653;SDS011;24413;52.450;20.706;2024-01-25T12:33:57;4.45;;;2.13;;
38653;SDS011;24413;52.450;20.706;2024-01-25T12:36:24;5.65;;;1.98;;
38653;SDS011;24413;52.450;20.706;2024-01-25T12:38:49;1.95;;;1.60;;
38653;SDS011;24413;52.450;20.706;2024-01-25T12:41:15;4.13;;;2.40;;
38653;SDS011;24413;52.450;20.706;2024-01-25T12:43:40;10.07;;;2.85;;
38653;SDS011;24413;52.450;20.706;2024-01-25T12:46:14;4.13;;;2.33;;
38653;SDS011;24413;52.450;20.706;2024-01-25T12:48:41;3.50;;;2.53;;
38653;SDS011;24413;52.450;20.706;2024-01-25T12:51:07;3.15;;;1.88;;
38653;SDS011;24413;52.450;20.706;2024-01-25T12:53:32;5.40;;;2.53;;
38653;SDS011;24413;52.450;20.706;2024-01-25T12:55:57;3.35;;;2.42;;
38653;SDS011;24413;52.450;20.706;2024-01-25T12:58:23;5.30;;;2.38;;
38653;SDS011;24413;52.450;20.706;2024-01-25T13:00:48;4.55;;;2.00;;
38653;SDS011;24413;52.450;20.706;2024-01-25T13:03:13;3.70;;;2.42;;
38653;SDS011;24413;52.450;20.706;2024-01-25T13:05:38;6.13;;;2.28;;
38653;SDS011;24413;52.450;20.706;2024-01-25T13:08:04;4.72;;;1.98;;
38653;SDS011;24413;52.450;20.706;2024-01-25T13:10:30;1.48;;;1.30;;
38653;SDS011;24413;52.450;20.706;2024-01-25T13:12:56;4.05;;;2.15;;
38653;SDS011;24413;52.450;20.706;2024-01-25T13:15:21;2.47;;;1.55;;
38653;SDS011;24413;52.450;20.706;2024-01-25T13:17:47;8.18;;;2.45;;
38653;SDS011;24413;52.450;20.706;2024-01-25T13:20:12;2.88;;;2.00;;
38653;SDS011;24413;52.450;20.706;2024-01-25T13:22:37;6.93;;;1.90;;
38653;SDS011;24413;52.450;20.706;2024-01-25T13:25:03;4.13;;;2.15;;
38653;SDS011;24413;52.450;20.706;2024-01-25T13:27:28;4.18;;;2.03;;
38653;SDS011;24413;52.450;20.706;2024-01-25T13:29:54;4.20;;;2.00;;
38653;SDS011;24413;52.450;20.706;2024-01-25T13:32:19;3.60;;;2.28;;
38653;SDS011;24413;52.450;20.706;2024-01-25T13:34:44;3.25;;;2.17;;
38653;SDS011;24413;52.450;20.706;2024-01-25T13:37:10;6.78;;;3.03;;
38653;SDS011;24413;52.450;20.706;2024-01-25T13:39:35;4.75;;;2.22;;
38653;SDS011;24413;52.450;20.706;2024-01-25T13:42:00;5.07;;;1.88;;
38653;SDS011;24413;52.450;20.706;2024-01-25T13:44:25;5.30;;;2.75;;
38653;SDS011;24413;52.450;20.706;2024-01-25T13:46:51;3.13;;;1.63;;
38653;SDS011;24413;52.450;20.706;2024-01-25T13:49:17;6.30;;;2.35;;
38653;SDS011;24413;52.450;20.706;2024-01-25T13:51:43;5.43;;;2.15;;
38653;SDS011;24413;52.450;20.706;2024-01-25T13:54:08;3.90;;;1.92;;
38653;SDS011;24413;52.450;20.706;2024-01-25T13:56:34;2.05;;;1.73;;
38653;SDS011;24413;52.450;20.706;2024-01-25T13:58:59;3.45;;;1.70;;
38653;SDS011;24413;52.450;20.706;2024-01-25T14:01:24;3.58;;;2.25;;
38653;SDS011;24413;52.450;20.706;2024-01-25T14:03:50;3.58;;;1.90;;
38653;SDS011;24413;52.450;20.706;2024-01-25T14:06:16;5.03;;;3.00;;
38653;SDS011;24413;52.450;20.706;2024-01-25T14:08:41;3.35;;;2.10;;
38653;SDS011;24413;52.450;20.706;2024-01-25T14:11:07;8.02;;;3.53;;
38653;SDS011;24413;52.450;20.706;2024-01-25T14:13:32;4.60;;;2.40;;
38653;SDS011;24413;52.450;20.706;2024-01-25T14:15:58;4.85;;;1.70;;
38653;SDS011;24413;52.450;20.706;2024-01-25T14:18:24;6.13;;;2.35;;
38653;SDS011;24413;52.450;20.706;2024-01-25T14:20:49;5.38;;;2.70;;
38653;SDS011;24413;52.450;20.706;2024-01-25T14:23:14;3.60;;;2.30;;
38653;SDS011;24413;52.450;20.706;2024-01-25T14:25:40;2.80;;;2.03;;
38653;SDS011;24413;52.450;20.706;2024-01-25T14:28:06;4.35;;;2.10;;
38653;SDS011;24413;52.450;20.706;2024-01-25T14:30:32;3.72;;;2.05;;
38653;SDS011;24413;52.450;20.706;2024-01-25T14:33:01;2.38;;;1.60;;
38653;SDS011;24413;52.450;20.706;2024-01-25T14:35:29;4.88;;;1.63;;
38653;SDS011;24413;52.450;20.706;2024-01-25T14:37:54;3.92;;;2.20;;
38653;SDS011;24413;52.450;20.706;2024-01-25T14:40:21;3.92;;;2.30;;
38653;SDS011;24413;52.450;20.706;2024-01-25T14:42:47;7.07;;;3.40;;
38653;SDS011;24413;52.450;20.706;2024-01-25T14:45:12;9.23;;;4.30;;
38653;SDS011;24413;52.450;20.706;2024-01-25T14:47:37;6.75;;;3.13;;
38653;SDS011;24413;52.450;20.706;2024-01-25T14:50:03;6.03;;;2.83;;
38653;SDS011;24413;52.450;20.706;2024-01-25T14:52:28;10.57;;;5.05;;
38653;SDS011;24413;52.450;20.706;2024-01-25T14:54:53;8.85;;;5.22;;
38653;SDS011;24413;52.450;20.706;2024-01-25T14:57:19;12.30;;;7.85;;
38653;SDS011;24413;52.450;20.706;2024-01-25T14:59:44;14.55;;;9.70;;
38653;SDS011;24413;52.450;20.706;2024-01-25T15:02:10;12.27;;;6.68;;
38653;SDS011;24413;52.450;20.706;2024-01-25T15:04:36;12.15;;;4.13;;
38653;SDS011;24413;52.450;20.706;2024-01-25T15:07:01;9.85;;;3.72;;
38653;SDS011;24413;52.450;20.706;2024-01-25T15:09:26;4.63;;;3.10;;
38653;SDS011;24413;52.450;20.706;2024-01-25T15:11:52;8.90;;;3.60;;
38653;SDS011;24413;52.450;20.706;2024-01-25T15:14:17;5.43;;;3.38;;
38653;SDS011;24413;52.450;20.706;2024-01-25T15:16:46;7.35;;;2.53;;
38653;SDS011;24413;52.450;20.706;2024-01-25T15:19:13;6.63;;;2.45;;
38653;SDS011;24413;52.450;20.706;2024-01-25T15:21:38;6.72;;;3.13;;
38653;SDS011;24413;52.450;20.706;2024-01-25T15:24:04;6.88;;;3.00;;
38653;SDS011;24413;52.450;20.706;2024-01-25T15:26:29;4.45;;;2.65;;
38653;SDS011;24413;52.450;20.706;2024-01-25T15:28:56;5.85;;;3.10;;
38653;SDS011;24413;52.450;20.706;2024-01-25T15:41:09;4.68;;;3.13;;
38653;SDS011;24413;52.450;20.706;2024-01-25T15:43:35;7.35;;;3.50;;
38653;SDS011;24413;52.450;20.706;2024-01-25T15:46:00;6.57;;;3.33;;
38653;SDS011;24413;52.450;20.706;2024-01-25T15:48:26;6.32;;;2.35;;
38653;SDS011;24413;52.450;20.706;2024-01-25T15:50:51;5.10;;;2.38;;
38653;SDS011;24413;52.450;20.706;2024-01-25T15:53:16;4.35;;;2.20;;
38653;SDS011;24413;52.450;20.706;2024-01-25T15:55:42;5.68;;;3.17;;
38653;SDS011;24413;52.450;20.706;2024-01-25T15:58:07;6.85;;;2.97;;
38653;SDS011;24413;52.450;20.706;2024-01-25T16:00:41;12.95;;;4.90;;
38653;SDS011;24413;52.450;20.706;2024-01-25T16:05:54;8.60;;;4.32;;
38653;SDS011;24413;52.450;20.706;2024-01-25T16:08:43;10.20;;;5.00;;
38653;SDS011;24413;52.450;20.706;2024-01-25T16:11:09;9.40;;;4.20;;
38653;SDS011;24413;52.450;20.706;2024-01-25T16:13:34;7.70;;;3.50;;
38653;SDS011;24413;52.450;20.706;2024-01-25T16:16:00;7.22;;;4.30;;
38653;SDS011;24413;52.450;20.706;2024-01-25T16:18:25;9.00;;;4.55;;
38653;SDS011;24413;52.450;20.706;2024-01-25T16:20:53;7.50;;;3.70;;
38653;SDS011;24413;52.450;20.706;2024-01-25T16:23:20;8.05;;;4.68;;
38653;SDS011;24413;52.450;20.706;2024-01-25T16:26:04;24.38;;;14.20;;
38653;SDS011;24413;52.450;20.706;2024-01-25T16:28:30;10.93;;;5.63;;
38653;SDS011;24413;52.450;20.706;2024-01-25T16:30:55;22.02;;;8.25;;
38653;SDS011;24413;52.450;20.706;2024-01-25T16:33:25;18.77;;;8.90;;
38653;SDS011;24413;52.450;20.706;2024-01-25T16:38:57;14.68;;;7.32;;
38653;SDS011;24413;52.450;20.706;2024-01-25T16:41:22;60.17;;;20.38;;
38653;SDS011;24413;52.450;20.706;2024-01-25T16:43:48;54.65;;;18.27;;
38653;SDS011;24413;52.450;20.706;2024-01-25T16:46:14;20.52;;;8.65;;
38653;SDS011;24413;52.450;20.706;2024-01-25T16:51:40;35.10;;;13.05;;
38653;SDS011;24413;52.450;20.706;2024-01-25T16:54:05;53.90;;;15.40;;
38653;SDS011;24413;52.450;20.706;2024-01-25T16:56:41;36.45;;;11.38;;